createdAt,value
2022-11-17T00:02:09.319Z,4.40
2022-11-17T00:05:11.119Z,4.50
2022-11-17T00:08:13.052Z,3.78
2022-11-17T00:11:15.135Z,3.60
2022-11-17T01:37:29.244Z,7.65
2022-11-17T01:40:30.640Z,8.25
2022-11-17T01:43:49.591Z,8.32
2022-11-17T01:46:51.379Z,9.38
2022-11-17T01:50:00.798Z,9.02
2022-11-17T01:53:07.219Z,9.30
2022-11-17T01:56:13.584Z,9.82
2022-11-17T01:59:22.886Z,8.70
2022-11-17T02:02:24.299Z,8.63
2022-11-17T02:05:45.272Z,8.50
2022-11-17T02:08:48.505Z,7.80
2022-11-17T02:11:50.502Z,7.40
2022-11-17T02:14:53.664Z,8.05
2022-11-17T02:17:55.992Z,7.75
2022-11-17T02:21:03.483Z,7.63
2022-11-17T02:24:45.452Z,6.47
2022-11-17T02:27:55.017Z,5.93
2022-11-17T02:31:11.984Z,5.60
2022-11-17T02:34:27.215Z,5.70
2022-11-17T02:37:37.976Z,5.50
2022-11-17T02:41:04.130Z,4.40
2022-11-17T02:44:21.283Z,4.43
2022-11-17T02:47:32.394Z,3.90
2022-11-17T02:50:36.182Z,4.00
2022-11-17T02:53:39.423Z,4.15
2022-11-17T02:56:42.621Z,4.20
2022-11-17T02:59:47.236Z,3.60
2022-11-17T03:03:19.472Z,3.58
2022-11-17T03:06:45.823Z,3.40
2022-11-17T03:10:09.491Z,3.15
2022-11-17T03:13:18.976Z,3.30
2022-11-17T03:16:37.476Z,4.00
2022-11-17T03:19:47.408Z,3.42
2022-11-17T03:23:02.426Z,3.13
2022-11-17T03:26:07.575Z,2.95
2022-11-17T03:29:13.459Z,2.80
2022-11-17T03:32:16.344Z,2.83
2022-11-17T03:35:23.762Z,2.92
2022-11-17T03:38:29.732Z,2.67
2022-11-17T03:41:35.964Z,2.50
2022-11-17T03:44:42.086Z,2.63
2022-11-17T03:47:44.864Z,2.58
2022-11-17T03:51:07.931Z,2.80
2022-11-17T03:54:09.827Z,2.42
2022-11-17T03:57:36.504Z,2.75
2022-11-17T04:00:40.544Z,2.30
2022-11-17T04:03:42.012Z,2.33
2022-11-17T04:06:43.468Z,1.75
2022-11-17T04:09:44.902Z,2.40
2022-11-17T04:12:47.532Z,1.70
2022-11-17T04:15:48.952Z,1.70
2022-11-17T04:18:53.336Z,2.00
2022-11-17T04:21:57.314Z,1.90
2022-11-17T04:24:58.730Z,1.98
2022-11-17T04:28:00.134Z,2.00
2022-11-17T04:31:01.560Z,2.50
2022-11-17T04:34:05.006Z,2.13
2022-11-17T04:37:08.367Z,2.50
2022-11-17T04:40:10.493Z,2.42
2022-11-17T04:43:11.897Z,2.20
2022-11-17T04:46:13.608Z,2.67
2022-11-17T04:49:16.881Z,2.47
2022-11-17T04:52:18.330Z,2.50
2022-11-17T04:55:19.776Z,2.40
2022-11-17T04:58:21.184Z,2.50
2022-11-17T05:01:23.792Z,2.30
2022-11-17T05:04:25.213Z,2.40
2022-11-17T05:07:26.697Z,1.98
2022-11-17T05:10:28.161Z,1.77
2022-11-17T05:13:29.587Z,2.30
2022-11-17T05:16:31.082Z,2.40
2022-11-17T05:19:34.848Z,2.47
2022-11-17T05:22:36.318Z,2.45
2022-11-17T05:25:37.730Z,2.50
2022-11-17T05:28:39.428Z,2.28
2022-11-17T05:31:41.264Z,2.13
2022-11-17T05:34:42.823Z,2.78
2022-11-17T05:37:44.232Z,3.03
2022-11-17T05:40:45.643Z,2.70
2022-11-17T05:43:47.457Z,3.22
2022-11-17T05:46:48.905Z,4.80
2022-11-17T05:49:50.316Z,5.00
2022-11-17T05:52:51.796Z,4.57
2022-11-17T05:56:25.408Z,5.07
2022-11-17T05:59:50.986Z,4.35
2022-11-17T06:03:07.956Z,3.63
2022-11-17T06:06:09.584Z,2.97
2022-11-17T06:09:11.913Z,3.90
2022-11-17T06:12:13.366Z,2.80
2022-11-17T06:15:14.963Z,2.92
2022-11-17T06:18:19.555Z,3.10
2022-11-17T06:21:21.364Z,2.72
2022-11-17T06:24:23.421Z,3.00
2022-11-17T06:27:25.998Z,2.65
2022-11-17T06:30:28.746Z,2.80
2022-11-17T06:33:31.920Z,2.58
2022-11-17T06:36:33.900Z,3.53
2022-11-17T06:39:35.362Z,3.20
2022-11-17T06:42:38.807Z,2.80
2022-11-17T06:45:42.727Z,2.78
2022-11-17T06:48:44.293Z,2.50
2022-11-17T06:51:45.875Z,2.67
2022-11-17T06:54:47.358Z,2.75
2022-11-17T06:57:53.260Z,2.53
2022-11-17T07:01:01.249Z,2.50
2022-11-17T07:04:02.774Z,1.80
2022-11-17T07:07:04.369Z,1.67
2022-11-17T07:10:06.387Z,2.13
2022-11-17T07:13:07.885Z,1.90
2022-11-17T07:16:22.917Z,1.80
2022-11-17T07:19:24.885Z,1.80
2022-11-17T07:22:26.338Z,1.63
2022-11-17T07:25:27.827Z,2.00
2022-11-17T07:28:29.911Z,1.70
2022-11-17T07:31:31.346Z,1.70
2022-11-17T07:34:32.861Z,1.77
2022-11-17T07:37:34.362Z,1.70
2022-11-17T07:40:36.214Z,1.80
2022-11-17T07:43:37.823Z,2.10
2022-11-17T07:46:39.318Z,2.00
2022-11-17T07:49:40.856Z,1.83
2022-11-17T07:52:42.367Z,2.28
2022-11-17T07:55:43.916Z,2.47
2022-11-17T07:58:45.464Z,2.00
2022-11-17T08:01:47.081Z,2.65
2022-11-17T08:04:48.644Z,2.30
2022-11-17T08:07:57.789Z,2.63
2022-11-17T08:11:07.232Z,3.00
2022-11-17T08:14:08.753Z,2.65
2022-11-17T08:17:10.324Z,2.78
2022-11-17T08:20:12.172Z,3.08
2022-11-17T08:23:13.784Z,2.72
2022-11-17T08:26:15.238Z,2.70
2022-11-17T08:29:16.852Z,2.35
2022-11-17T08:32:18.317Z,2.65
2022-11-17T08:35:21.963Z,2.38
2022-11-17T08:38:23.821Z,2.90
2022-11-17T08:41:25.330Z,2.38
2022-11-17T08:44:26.834Z,2.40
2022-11-17T08:47:28.332Z,2.47
2022-11-17T08:50:30.061Z,2.33
2022-11-17T08:53:31.815Z,2.20
2022-11-17T08:56:33.303Z,2.03
2022-11-17T08:59:34.820Z,2.20
2022-11-17T09:02:38.362Z,1.60
2022-11-17T09:05:42.561Z,1.60
2022-11-17T09:11:48.753Z,1.92
2022-11-17T09:14:50.212Z,2.08
2022-11-17T09:17:51.947Z,2.10
2022-11-17T09:20:59.231Z,1.98
2022-11-17T09:24:00.832Z,2.00
2022-11-17T09:27:02.422Z,1.95
2022-11-17T09:30:04.478Z,2.00
2022-11-17T09:33:05.989Z,2.20
2022-11-17T09:36:08.051Z,2.33
2022-11-17T09:39:09.747Z,2.80
2022-11-17T09:42:22.120Z,2.25
2022-11-17T09:45:28.808Z,2.10
2022-11-17T09:48:47.570Z,2.33
2022-11-17T09:51:50.577Z,2.25
2022-11-17T09:54:56.435Z,1.90
2022-11-17T09:58:15.094Z,2.08
2022-11-17T10:01:18.795Z,1.75
2022-11-17T10:04:20.290Z,2.30
2022-11-17T10:07:22.035Z,2.65
2022-11-17T10:10:51.014Z,2.97
2022-11-17T10:13:52.575Z,2.85
2022-11-17T10:16:56.765Z,2.45
2022-11-17T10:23:02.806Z,2.25
2022-11-17T10:26:09.490Z,2.45
2022-11-17T10:29:21.745Z,2.28
2022-11-17T10:32:23.248Z,2.45
2022-11-17T10:35:27.977Z,2.47
2022-11-17T10:38:30.618Z,2.63
2022-11-17T10:41:42.137Z,2.70
2022-11-17T10:44:46.982Z,1.95
2022-11-17T10:47:48.398Z,2.40
2022-11-17T10:50:57.213Z,2.30
2022-11-17T10:54:05.673Z,2.22
2022-11-17T10:57:14.538Z,2.17
2022-11-17T11:00:30.663Z,2.55
2022-11-17T11:03:34.866Z,2.15
2022-11-17T11:06:36.599Z,2.05
2022-11-17T11:09:47.219Z,1.92
2022-11-17T11:13:01.858Z,1.70
2022-11-17T11:16:03.465Z,1.52
2022-11-17T11:19:12.835Z,1.50
2022-11-17T11:22:33.769Z,1.30
2022-11-17T11:25:43.198Z,1.70
2022-11-17T11:29:05.408Z,2.28
2022-11-17T11:32:23.733Z,2.33
2022-11-17T11:35:39.672Z,1.90
2022-11-17T11:38:55.608Z,2.38
2022-11-17T11:42:09.117Z,2.53
2022-11-17T11:45:26.568Z,2.37
2022-11-17T11:48:31.643Z,2.00
2022-11-17T11:51:37.889Z,2.45
2022-11-17T11:54:51.066Z,2.53
2022-11-17T11:58:05.467Z,2.53
2022-11-17T12:01:08.413Z,2.35
2022-11-17T12:04:34.887Z,2.53
2022-11-17T12:08:11.358Z,2.38
2022-11-17T12:11:16.361Z,2.55
2022-11-17T12:14:19.223Z,1.80
2022-11-17T12:17:20.742Z,2.13
2022-11-17T12:20:31.093Z,2.17
2022-11-17T12:23:35.889Z,2.20
2022-11-17T12:26:37.612Z,2.17
2022-11-17T12:29:46.617Z,2.00
2022-11-17T12:32:48.066Z,2.40
2022-11-17T12:36:29.699Z,2.33
2022-11-17T12:40:00.887Z,2.20
2022-11-17T12:43:14.465Z,2.75
2022-11-17T12:46:26.142Z,2.40
2022-11-17T12:49:52.664Z,2.28
2022-11-17T12:53:09.518Z,2.10
2022-11-17T12:56:27.377Z,2.20
2022-11-17T12:59:51.753Z,2.05
2022-11-17T13:02:57.410Z,2.40
2022-11-17T13:06:34.493Z,3.63
2022-11-17T13:09:36.106Z,2.67
2022-11-17T13:12:37.621Z,2.63
2022-11-17T13:15:40.952Z,2.30
2022-11-17T13:18:43.065Z,2.07
2022-11-17T13:21:45.322Z,2.45
2022-11-17T13:24:48.894Z,2.42
2022-11-17T13:27:56.038Z,3.13
2022-11-17T13:31:01.437Z,2.42
2022-11-17T13:34:07.549Z,2.38
2022-11-17T13:37:15.539Z,2.60
2022-11-17T13:40:22.282Z,3.03
2022-11-17T13:43:26.343Z,3.20
2022-11-17T13:46:27.923Z,3.30
2022-11-17T13:49:34.806Z,4.30
2022-11-17T13:52:43.659Z,3.25
2022-11-17T13:55:47.381Z,2.90
2022-11-17T13:58:50.805Z,2.33
2022-11-17T14:02:16.988Z,1.83
2022-11-17T14:05:19.953Z,1.70
2022-11-17T14:08:24.996Z,1.70
2022-11-17T14:11:26.880Z,1.90
2022-11-17T14:14:33.997Z,1.80
2022-11-17T14:17:35.521Z,1.92
2022-11-17T14:20:36.965Z,1.77
2022-11-17T14:23:39.281Z,1.55
2022-11-17T14:26:43.066Z,1.75
2022-11-17T14:29:44.722Z,1.60
2022-11-17T14:32:46.315Z,1.70
2022-11-17T14:35:54.235Z,1.85
2022-11-17T14:38:55.848Z,1.80
2022-11-17T14:41:57.329Z,1.75
2022-11-17T14:44:58.825Z,2.20
2022-11-17T14:48:00.364Z,1.48
2022-11-17T14:51:01.829Z,1.50
2022-11-17T14:54:03.359Z,1.60
2022-11-17T14:57:04.896Z,1.42
2022-11-17T15:00:09.328Z,1.75
2022-11-17T15:03:10.890Z,1.60
2022-11-17T15:06:19.546Z,2.15
2022-11-17T15:09:21.712Z,1.50
2022-11-17T15:12:23.584Z,1.67
2022-11-17T15:15:25.038Z,2.03
2022-11-17T15:18:26.543Z,1.70
2022-11-17T15:21:28.099Z,1.80
2022-11-17T15:24:29.620Z,2.05
2022-11-17T15:27:31.090Z,1.50
2022-11-17T15:30:33.154Z,2.20
2022-11-17T15:33:34.659Z,1.58
2022-11-17T15:36:36.363Z,2.00
2022-11-17T15:39:37.811Z,1.27
2022-11-17T15:42:39.233Z,1.80
2022-11-17T15:45:40.671Z,1.83
2022-11-17T15:48:43.834Z,2.00
2022-11-17T15:51:45.351Z,1.92
2022-11-17T15:54:46.794Z,1.33
2022-11-17T15:57:48.277Z,1.48
2022-11-17T16:00:49.802Z,2.13
2022-11-17T16:03:52.819Z,1.85
2022-11-17T16:06:54.344Z,1.80
2022-11-17T16:09:55.852Z,1.70
2022-11-17T16:12:57.301Z,1.58
2022-11-17T16:15:58.738Z,2.25
2022-11-17T16:19:00.707Z,1.92
2022-11-17T16:22:02.221Z,1.67
2022-11-17T16:25:03.919Z,1.73
2022-11-17T16:28:05.404Z,1.73
2022-11-17T16:31:23.164Z,2.38
2022-11-17T16:34:24.703Z,1.90
2022-11-17T16:37:26.210Z,1.80
2022-11-17T16:40:27.670Z,2.17
2022-11-17T16:43:29.525Z,2.30
2022-11-17T16:46:31.782Z,1.80
2022-11-17T16:49:33.281Z,1.70
2022-11-17T16:52:34.836Z,2.30
2022-11-17T16:55:36.718Z,2.05
2022-11-17T16:58:38.433Z,1.80
2022-11-17T17:01:39.992Z,2.00
2022-11-17T17:04:41.483Z,1.73
2022-11-17T17:07:43.009Z,2.08
2022-11-17T17:10:44.558Z,1.50
2022-11-17T17:13:46.056Z,1.88
2022-11-17T17:16:47.558Z,1.60
2022-11-17T17:19:49.065Z,1.92
2022-11-17T17:22:50.581Z,1.70
2022-11-17T17:26:05.024Z,1.73
2022-11-17T17:32:08.170Z,1.98
2022-11-17T17:35:09.673Z,1.42
2022-11-17T17:38:11.171Z,1.83
2022-11-17T17:41:14.979Z,1.67
2022-11-17T17:44:18.398Z,2.00
2022-11-17T17:47:19.886Z,1.67
2022-11-17T17:50:21.355Z,1.98
2022-11-17T17:53:24.755Z,2.20
2022-11-17T17:56:26.365Z,2.03
2022-11-17T17:59:27.861Z,1.60
2022-11-17T18:02:29.275Z,1.73
2022-11-17T18:05:30.923Z,1.83
2022-11-17T18:08:36.802Z,2.33
2022-11-17T18:11:38.304Z,2.03
2022-11-17T18:14:40.915Z,1.80
2022-11-17T18:17:42.365Z,2.53
2022-11-17T18:20:43.813Z,1.80
2022-11-17T18:23:46.026Z,2.13
2022-11-17T18:26:47.453Z,1.90
2022-11-17T18:29:51.207Z,2.25
2022-11-17T18:32:52.729Z,2.03
2022-11-17T18:35:54.266Z,1.80
2022-11-17T18:38:55.944Z,2.25
2022-11-17T18:41:57.367Z,2.15
2022-11-17T18:44:58.842Z,1.70
2022-11-17T18:48:00.317Z,2.28
2022-11-17T18:51:19.251Z,2.38
2022-11-17T18:54:21.656Z,1.95
2022-11-17T18:57:23.174Z,1.92
2022-11-17T19:00:24.821Z,1.92
2022-11-17T19:03:26.283Z,1.77
2022-11-17T19:06:28.651Z,2.83
2022-11-17T19:09:30.128Z,5.53
2022-11-17T19:12:31.755Z,4.28
2022-11-17T19:15:34.356Z,1.90
2022-11-17T19:18:36.410Z,2.20
2022-11-17T19:21:37.902Z,2.13
2022-11-17T19:24:39.510Z,2.13
2022-11-17T19:27:41.028Z,2.45
2022-11-17T19:30:42.668Z,1.77
2022-11-17T19:33:45.504Z,2.40
2022-11-17T19:36:47.100Z,1.90
2022-11-17T19:39:48.622Z,2.80
2022-11-17T19:42:50.190Z,2.47
2022-11-17T19:45:51.805Z,3.55
2022-11-17T19:48:54.526Z,2.53
2022-11-17T19:51:56.004Z,3.03
2022-11-17T19:54:57.454Z,2.63
2022-11-17T19:57:59.130Z,1.90
2022-11-17T20:01:13.879Z,1.95
2022-11-17T20:04:15.450Z,2.13
2022-11-17T20:07:16.914Z,1.77
2022-11-17T20:10:18.447Z,2.20
2022-11-17T20:13:19.848Z,2.20
2022-11-17T20:16:23.749Z,2.28
2022-11-17T20:19:25.188Z,2.08
2022-11-17T20:22:26.618Z,1.92
2022-11-17T20:25:28.077Z,2.28
2022-11-17T20:28:32.825Z,2.15
2022-11-17T20:31:35.919Z,2.15
2022-11-17T20:34:37.462Z,2.28
2022-11-17T20:37:38.932Z,2.60
2022-11-17T20:40:40.607Z,2.45
2022-11-17T20:43:42.085Z,2.20
2022-11-17T20:46:43.554Z,2.50
2022-11-17T20:49:45.071Z,1.35
2022-11-17T20:52:46.574Z,2.00
2022-11-17T20:55:48.053Z,2.00
2022-11-17T20:58:49.562Z,1.88
2022-11-17T21:01:51.416Z,1.73
2022-11-17T21:04:53.126Z,1.60
2022-11-17T21:07:54.607Z,2.00
2022-11-17T21:11:16.570Z,1.98
2022-11-17T21:14:18.020Z,2.00
2022-11-17T21:17:19.551Z,2.10
2022-11-17T21:20:21.044Z,2.25
2022-11-17T21:23:22.496Z,2.05
2022-11-17T21:26:24.140Z,2.55
2022-11-17T21:29:25.798Z,2.20
2022-11-17T21:32:27.247Z,2.33
2022-11-17T21:35:28.717Z,2.40
2022-11-17T21:38:30.569Z,2.80
2022-11-17T21:41:33.773Z,2.60
2022-11-17T21:44:35.165Z,2.97
2022-11-17T21:47:36.720Z,2.97
2022-11-17T21:50:43.265Z,3.20
2022-11-17T21:53:44.789Z,3.00
2022-11-17T21:56:46.310Z,3.13
2022-11-17T21:59:47.919Z,3.42
2022-11-17T22:02:49.346Z,3.30
2022-11-17T22:05:52.339Z,3.60
2022-11-17T22:08:55.482Z,3.07
2022-11-17T22:11:56.911Z,3.65
2022-11-17T22:14:58.506Z,3.97
2022-11-17T22:17:59.921Z,3.65
2022-11-17T22:21:01.751Z,3.97
2022-11-17T22:24:04.207Z,3.78
2022-11-17T22:27:05.601Z,4.10
2022-11-17T22:30:07.560Z,4.28
2022-11-17T22:33:08.975Z,3.70
2022-11-17T22:36:10.484Z,4.30
2022-11-17T22:39:12.364Z,3.78
2022-11-17T22:42:13.905Z,4.15
2022-11-17T22:45:15.407Z,4.43
2022-11-17T22:48:16.920Z,3.47
2022-11-17T22:51:19.497Z,4.50
2022-11-17T22:54:20.933Z,3.90
2022-11-17T22:57:22.411Z,4.43
2022-11-17T23:00:24.024Z,4.20
2022-11-17T23:03:25.433Z,4.45
2022-11-17T23:06:26.959Z,4.55
2022-11-17T23:09:29.330Z,3.60
2022-11-17T23:12:30.797Z,4.00
2022-11-17T23:15:32.238Z,3.92
2022-11-17T23:18:34.064Z,4.13
2022-11-17T23:21:35.547Z,3.78
2022-11-17T23:24:36.979Z,4.05
2022-11-17T23:27:38.424Z,4.60
2022-11-17T23:30:40.029Z,4.00
2022-11-17T23:33:46.201Z,4.25
2022-11-17T23:36:47.710Z,3.55
2022-11-17T23:39:49.351Z,4.50
2022-11-17T23:42:53.097Z,4.45
2022-11-17T23:45:55.114Z,5.28
2022-11-17T23:48:56.618Z,4.60
2022-11-17T23:51:58.071Z,5.20
2022-11-17T23:54:59.519Z,5.50
2022-11-17T23:58:00.929Z,5.30
